Providenciales, Turks Islands

10:22 AM AST on December 07, 2016 (GMT -0400)
Providenciales International | | Change Station

Elev 16 ft 21.77 °N, 72.27 °W | Updated 22 minutes ago

Partly Cloudy
Partly Cloudy
82 °F
Feels Like 91 °F
N
6
Wind Variable Wind from ESE

Today
High -- | Low -- °F
--% Chance of Precip.
Yesterday
High -- | Low -- °F
Precip. -- in
Pressure 30.06 in
Visibility 6.2 miles
Clouds Few 1500 ft
Heat Index 91 °F
Dew Point 77 °F
Humidity 84%
Rainfall 0.00 in
Snow Depth Not available.
7:15 AM 6:06 PM
First Quarter, 53% visible
METAR MBPV 071400Z 12005KT 9999 FEW015 28/25 Q1018
Pressure 30.06 in
Visibility 6.2 miles
Clouds Few 1500 ft
Heat Index 91 °F
Dew Point 77 °F
Humidity 84%
Rainfall 0.00 in
Snow Depth Not available.
7:15 AM 6:06 PM
First Quarter, 53% visible
METAR MBPV 071400Z 12005KT 9999 FEW015 28/25 Q1018

10-Day Weather Forecast

No radar image for this location.
×

Almanac

Astronomy

Dec. 07, 2016 Rise Set
Actual Time
Civil Twilight
Nautical Twilight
Astronomical Twilight
Moon
Length of Visible Light
Length of Day
Tomorrow will be .
, % of the Moon is Illuminated

Today's Extremes

Country Highs Country Lows

Community

WunderPhotos

Upload Photos

1,956,116 photos uploaded!

WunderBlog® & News

Nearby

Air Quality

  Air Quality AQ Index Pollutant
Not available.

Snow Depth

Station Depth Elevation

Earthquake Activity

City Distance Mag. Time & Date
Minimum magnitude displayed is 2.5.

Coastal Water Temperatures

Place Temperature

Stations

Nearby Weather Stations

Station Location Temp. Windchill Dew Point Humidity Wind Precip. Elev Updated Type